Stony Plain, Canada
Current Conditions -  °F | °C
As of 6:00 PM on Friday 19 Dec 2014 (Local Time) from CZVL Reporting Station
Light Snow Light Snow  
Wind Chill: -9°   Ceiling: 5500
Heat Index: -9°   Visibility: 4mi
Dew Point: -10°   Wind: 3mph
Humidity: 93%   Direction: 350°N
Pressure: 29.69"   Gusts: NA
Location:  53.53°N, 114.01°W
Report Text: CZVL 200100Z AUTO 35003KT 310V050 4SM -SN OVC055 M09/M10 A2969 RMK SLP100
Loading
Personal Weather Stations






























Interactive Weather Map New forecast layout! Learn more

10-Day Weather Forecast

Advertisements
Track Severe Weather on mobile